sensor_id;sensor_type;location;lat;lon;timestamp;P1;durP1;ratioP1;P2;durP2;ratioP2
12745;SDS011;6437;53.686;10.030;2023-05-10T00:02:10;5.35;;;2.45;;
12745;SDS011;6437;53.686;10.030;2023-05-10T00:04:12;8.25;;;2.55;;
12745;SDS011;6437;53.686;10.030;2023-05-10T00:06:13;11.32;;;2.92;;
12745;SDS011;6437;53.686;10.030;2023-05-10T00:08:19;11.85;;;2.85;;
12745;SDS011;6437;53.686;10.030;2023-05-10T00:10:24;4.35;;;2.80;;
12745;SDS011;6437;53.686;10.030;2023-05-10T00:14:28;9.25;;;2.88;;
12745;SDS011;6437;53.686;10.030;2023-05-10T00:18:31;3.80;;;2.08;;
12745;SDS011;6437;53.686;10.030;2023-05-10T00:20:33;8.50;;;3.45;;
12745;SDS011;6437;53.686;10.030;2023-05-10T00:22:35;9.02;;;3.30;;
12745;SDS011;6437;53.686;10.030;2023-05-10T00:24:41;5.38;;;2.58;;
12745;SDS011;6437;53.686;10.030;2023-05-10T00:26:44;4.35;;;2.40;;
12745;SDS011;6437;53.686;10.030;2023-05-10T00:28:46;6.93;;;2.67;;
12745;SDS011;6437;53.686;10.030;2023-05-10T00:30:48;3.53;;;2.50;;
12745;SDS011;6437;53.686;10.030;2023-05-10T00:34:52;7.43;;;2.30;;
12745;SDS011;6437;53.686;10.030;2023-05-10T00:36:54;10.10;;;2.65;;
12745;SDS011;6437;53.686;10.030;2023-05-10T00:39:01;6.63;;;2.95;;
12745;SDS011;6437;53.686;10.030;2023-05-10T00:41:13;4.85;;;3.17;;
12745;SDS011;6437;53.686;10.030;2023-05-10T00:43:18;14.27;;;3.08;;
12745;SDS011;6437;53.686;10.030;2023-05-10T00:47:22;5.72;;;2.47;;
12745;SDS011;6437;53.686;10.030;2023-05-10T00:51:26;5.27;;;2.40;;
12745;SDS011;6437;53.686;10.030;2023-05-10T00:53:28;6.97;;;2.50;;
12745;SDS011;6437;53.686;10.030;2023-05-10T00:55:33;7.50;;;4.03;;
12745;SDS011;6437;53.686;10.030;2023-05-10T00:57:39;4.93;;;2.67;;
12745;SDS011;6437;53.686;10.030;2023-05-10T00:59:43;5.22;;;2.50;;
12745;SDS011;6437;53.686;10.030;2023-05-10T01:03:47;5.35;;;2.97;;
12745;SDS011;6437;53.686;10.030;2023-05-10T01:07:51;4.57;;;2.13;;
12745;SDS011;6437;53.686;10.030;2023-05-10T01:09:53;13.65;;;3.83;;
12745;SDS011;6437;53.686;10.030;2023-05-10T01:11:57;10.60;;;3.15;;
12745;SDS011;6437;53.686;10.030;2023-05-10T01:14:05;4.88;;;2.08;;
12745;SDS011;6437;53.686;10.030;2023-05-10T01:16:08;6.55;;;2.58;;
12745;SDS011;6437;53.686;10.030;2023-05-10T01:18:10;11.30;;;2.55;;
12745;SDS011;6437;53.686;10.030;2023-05-10T01:20:12;12.57;;;2.55;;
12745;SDS011;6437;53.686;10.030;2023-05-10T01:22:22;4.18;;;2.63;;
12745;SDS011;6437;53.686;10.030;2023-05-10T01:30:25;3.03;;;2.13;;
12745;SDS011;6437;53.686;10.030;2023-05-10T01:32:47;5.85;;;2.47;;
12745;SDS011;6437;53.686;10.030;2023-05-10T01:34:59;11.45;;;2.63;;
12745;SDS011;6437;53.686;10.030;2023-05-10T01:37:11;5.63;;;3.10;;
12745;SDS011;6437;53.686;10.030;2023-05-10T01:39:20;4.05;;;2.42;;
12745;SDS011;6437;53.686;10.030;2023-05-10T01:41:28;3.75;;;2.25;;
12745;SDS011;6437;53.686;10.030;2023-05-10T01:43:39;13.55;;;3.22;;
12745;SDS011;6437;53.686;10.030;2023-05-10T01:45:56;8.43;;;2.42;;
12745;SDS011;6437;53.686;10.030;2023-05-10T01:48:11;9.30;;;2.90;;
12745;SDS011;6437;53.686;10.030;2023-05-10T01:50:17;2.78;;;2.08;;
12745;SDS011;6437;53.686;10.030;2023-05-10T01:52:22;10.68;;;3.13;;
12745;SDS011;6437;53.686;10.030;2023-05-10T01:54:29;4.80;;;2.25;;
12745;SDS011;6437;53.686;10.030;2023-05-10T01:56:37;11.95;;;3.40;;
12745;SDS011;6437;53.686;10.030;2023-05-10T01:58:40;11.73;;;3.03;;
12745;SDS011;6437;53.686;10.030;2023-05-10T02:00:47;4.80;;;2.60;;
12745;SDS011;6437;53.686;10.030;2023-05-10T02:02:50;8.00;;;2.53;;
12745;SDS011;6437;53.686;10.030;2023-05-10T02:04:55;6.82;;;2.28;;
12745;SDS011;6437;53.686;10.030;2023-05-10T02:06:58;4.15;;;1.98;;
12745;SDS011;6437;53.686;10.030;2023-05-10T02:09:04;8.15;;;2.35;;
12745;SDS011;6437;53.686;10.030;2023-05-10T02:11:07;14.85;;;2.90;;
12745;SDS011;6437;53.686;10.030;2023-05-10T02:13:10;7.68;;;1.73;;
12745;SDS011;6437;53.686;10.030;2023-05-10T02:15:15;3.15;;;2.17;;
12745;SDS011;6437;53.686;10.030;2023-05-10T02:17:24;3.97;;;2.30;;
12745;SDS011;6437;53.686;10.030;2023-05-10T02:19:28;14.05;;;2.95;;
12745;SDS011;6437;53.686;10.030;2023-05-10T02:21:32;7.40;;;2.85;;
12745;SDS011;6437;53.686;10.030;2023-05-10T02:23:36;7.15;;;2.40;;
12745;SDS011;6437;53.686;10.030;2023-05-10T02:25:39;7.18;;;3.22;;
12745;SDS011;6437;53.686;10.030;2023-05-10T02:27:41;5.40;;;2.70;;
12745;SDS011;6437;53.686;10.030;2023-05-10T02:29:44;6.45;;;3.17;;
12745;SDS011;6437;53.686;10.030;2023-05-10T02:31:47;13.77;;;2.55;;
12745;SDS011;6437;53.686;10.030;2023-05-10T02:33:56;5.35;;;3.28;;
12745;SDS011;6437;53.686;10.030;2023-05-10T02:35:59;4.10;;;2.65;;
12745;SDS011;6437;53.686;10.030;2023-05-10T02:38:10;9.05;;;2.90;;
12745;SDS011;6437;53.686;10.030;2023-05-10T02:40:14;5.72;;;2.60;;
12745;SDS011;6437;53.686;10.030;2023-05-10T02:42:19;11.95;;;3.05;;
12745;SDS011;6437;53.686;10.030;2023-05-10T02:44:32;3.63;;;2.40;;
12745;SDS011;6437;53.686;10.030;2023-05-10T02:46:36;13.20;;;3.20;;
12745;SDS011;6437;53.686;10.030;2023-05-10T02:48:39;6.63;;;2.80;;
12745;SDS011;6437;53.686;10.030;2023-05-10T02:50:44;5.78;;;2.40;;
12745;SDS011;6437;53.686;10.030;2023-05-10T02:52:51;4.82;;;2.33;;
12745;SDS011;6437;53.686;10.030;2023-05-10T02:55:05;4.20;;;2.45;;
12745;SDS011;6437;53.686;10.030;2023-05-10T02:57:22;6.15;;;2.53;;
12745;SDS011;6437;53.686;10.030;2023-05-10T02:59:28;4.32;;;2.03;;
12745;SDS011;6437;53.686;10.030;2023-05-10T03:01:30;4.50;;;3.10;;
12745;SDS011;6437;53.686;10.030;2023-05-10T03:03:33;13.85;;;2.90;;
12745;SDS011;6437;53.686;10.030;2023-05-10T03:05:35;3.88;;;2.72;;
12745;SDS011;6437;53.686;10.030;2023-05-10T03:07:37;19.27;;;2.70;;
12745;SDS011;6437;53.686;10.030;2023-05-10T03:09:39;17.58;;;3.20;;
12745;SDS011;6437;53.686;10.030;2023-05-10T03:13:49;9.55;;;2.40;;
12745;SDS011;6437;53.686;10.030;2023-05-10T03:16:06;5.63;;;2.03;;
12745;SDS011;6437;53.686;10.030;2023-05-10T03:18:15;7.10;;;3.15;;
12745;SDS011;6437;53.686;10.030;2023-05-10T03:20:20;4.63;;;2.97;;
12745;SDS011;6437;53.686;10.030;2023-05-10T03:22:28;6.60;;;2.22;;
12745;SDS011;6437;53.686;10.030;2023-05-10T03:24:33;5.35;;;2.53;;
12745;SDS011;6437;53.686;10.030;2023-05-10T03:26:39;4.97;;;3.17;;
12745;SDS011;6437;53.686;10.030;2023-05-10T03:28:46;8.65;;;2.80;;
12745;SDS011;6437;53.686;10.030;2023-05-10T03:30:49;10.35;;;2.35;;
12745;SDS011;6437;53.686;10.030;2023-05-10T03:32:53;7.30;;;2.47;;
12745;SDS011;6437;53.686;10.030;2023-05-10T03:35:03;6.03;;;2.42;;
12745;SDS011;6437;53.686;10.030;2023-05-10T03:37:15;15.13;;;2.85;;
12745;SDS011;6437;53.686;10.030;2023-05-10T03:39:17;12.00;;;2.25;;
12745;SDS011;6437;53.686;10.030;2023-05-10T03:41:21;5.90;;;2.63;;
12745;SDS011;6437;53.686;10.030;2023-05-10T03:43:23;7.43;;;2.75;;
12745;SDS011;6437;53.686;10.030;2023-05-10T03:45:26;10.82;;;2.95;;
12745;SDS011;6437;53.686;10.030;2023-05-10T03:47:28;7.70;;;3.40;;
12745;SDS011;6437;53.686;10.030;2023-05-10T03:49:32;14.18;;;2.88;;
12745;SDS011;6437;53.686;10.030;2023-05-10T03:51:34;6.40;;;2.95;;
12745;SDS011;6437;53.686;10.030;2023-05-10T03:53:36;6.05;;;3.03;;
12745;SDS011;6437;53.686;10.030;2023-05-10T03:55:40;5.18;;;2.50;;
12745;SDS011;6437;53.686;10.030;2023-05-10T03:57:48;6.60;;;2.75;;
12745;SDS011;6437;53.686;10.030;2023-05-10T03:59:50;7.05;;;2.05;;
12745;SDS011;6437;53.686;10.030;2023-05-10T04:01:54;11.05;;;2.83;;
12745;SDS011;6437;53.686;10.030;2023-05-10T04:03:57;8.65;;;2.50;;
12745;SDS011;6437;53.686;10.030;2023-05-10T04:05:59;7.60;;;2.42;;
12745;SDS011;6437;53.686;10.030;2023-05-10T04:08:13;3.90;;;1.95;;
12745;SDS011;6437;53.686;10.030;2023-05-10T04:10:16;7.30;;;2.90;;
12745;SDS011;6437;53.686;10.030;2023-05-10T04:12:18;6.88;;;2.83;;
12745;SDS011;6437;53.686;10.030;2023-05-10T04:14:20;17.55;;;4.05;;
12745;SDS011;6437;53.686;10.030;2023-05-10T04:16:22;5.28;;;2.83;;
12745;SDS011;6437;53.686;10.030;2023-05-10T04:18:27;11.55;;;2.58;;
12745;SDS011;6437;53.686;10.030;2023-05-10T04:20:33;13.00;;;3.15;;
12745;SDS011;6437;53.686;10.030;2023-05-10T04:22:36;12.20;;;2.67;;
12745;SDS011;6437;53.686;10.030;2023-05-10T04:24:54;4.35;;;2.47;;
12745;SDS011;6437;53.686;10.030;2023-05-10T04:26:56;3.50;;;2.20;;
12745;SDS011;6437;53.686;10.030;2023-05-10T04:28:58;5.80;;;3.03;;
12745;SDS011;6437;53.686;10.030;2023-05-10T04:31:01;7.45;;;2.90;;
12745;SDS011;6437;53.686;10.030;2023-05-10T04:33:10;11.23;;;2.70;;
12745;SDS011;6437;53.686;10.030;2023-05-10T04:35:16;8.75;;;2.35;;
12745;SDS011;6437;53.686;10.030;2023-05-10T04:37:18;7.68;;;3.03;;
12745;SDS011;6437;53.686;10.030;2023-05-10T04:39:21;5.97;;;3.13;;
12745;SDS011;6437;53.686;10.030;2023-05-10T04:41:26;14.27;;;2.85;;
12745;SDS011;6437;53.686;10.030;2023-05-10T04:43:28;8.10;;;2.58;;
12745;SDS011;6437;53.686;10.030;2023-05-10T04:45:30;9.60;;;3.42;;
12745;SDS011;6437;53.686;10.030;2023-05-10T04:47:31;4.88;;;3.03;;
12745;SDS011;6437;53.686;10.030;2023-05-10T04:49:36;9.60;;;3.17;;
12745;SDS011;6437;53.686;10.030;2023-05-10T04:51:40;3.85;;;2.03;;
12745;SDS011;6437;53.686;10.030;2023-05-10T04:53:43;5.22;;;2.65;;
12745;SDS011;6437;53.686;10.030;2023-05-10T04:55:44;11.48;;;3.42;;
12745;SDS011;6437;53.686;10.030;2023-05-10T04:57:46;10.27;;;2.53;;
12745;SDS011;6437;53.686;10.030;2023-05-10T04:59:48;4.90;;;2.50;;
12745;SDS011;6437;53.686;10.030;2023-05-10T05:01:51;7.15;;;3.50;;
12745;SDS011;6437;53.686;10.030;2023-05-10T05:03:54;10.15;;;3.75;;
12745;SDS011;6437;53.686;10.030;2023-05-10T05:05:59;3.60;;;2.15;;
12745;SDS011;6437;53.686;10.030;2023-05-10T05:08:05;4.80;;;3.13;;
12745;SDS011;6437;53.686;10.030;2023-05-10T05:10:16;5.22;;;2.65;;
12745;SDS011;6437;53.686;10.030;2023-05-10T05:12:18;15.20;;;3.10;;
12745;SDS011;6437;53.686;10.030;2023-05-10T05:14:26;19.25;;;3.75;;
12745;SDS011;6437;53.686;10.030;2023-05-10T05:16:30;9.40;;;3.03;;
12745;SDS011;6437;53.686;10.030;2023-05-10T05:18:32;10.13;;;3.22;;
12745;SDS011;6437;53.686;10.030;2023-05-10T05:20:34;14.00;;;3.45;;
12745;SDS011;6437;53.686;10.030;2023-05-10T05:22:36;10.98;;;3.17;;
12745;SDS011;6437;53.686;10.030;2023-05-10T05:24:40;7.35;;;3.15;;
12745;SDS011;6437;53.686;10.030;2023-05-10T05:26:46;9.20;;;2.95;;
12745;SDS011;6437;53.686;10.030;2023-05-10T05:28:48;7.55;;;2.78;;
12745;SDS011;6437;53.686;10.030;2023-05-10T05:30:54;5.90;;;3.50;;
12745;SDS011;6437;53.686;10.030;2023-05-10T05:32:56;5.00;;;2.97;;
12745;SDS011;6437;53.686;10.030;2023-05-10T05:35:12;4.88;;;2.90;;
12745;SDS011;6437;53.686;10.030;2023-05-10T05:39:16;9.55;;;3.00;;
12745;SDS011;6437;53.686;10.030;2023-05-10T05:41:23;7.30;;;2.67;;
12745;SDS011;6437;53.686;10.030;2023-05-10T05:43:26;9.30;;;3.38;;
12745;SDS011;6437;53.686;10.030;2023-05-10T05:45:28;6.38;;;3.50;;
12745;SDS011;6437;53.686;10.030;2023-05-10T05:47:30;15.93;;;3.17;;
12745;SDS011;6437;53.686;10.030;2023-05-10T05:49:32;12.73;;;2.80;;
12745;SDS011;6437;53.686;10.030;2023-05-10T05:51:34;11.68;;;3.30;;
12745;SDS011;6437;53.686;10.030;2023-05-10T05:53:42;3.80;;;2.80;;
12745;SDS011;6437;53.686;10.030;2023-05-10T05:55:50;4.05;;;2.58;;
12745;SDS011;6437;53.686;10.030;2023-05-10T05:57:54;11.00;;;2.83;;
12745;SDS011;6437;53.686;10.030;2023-05-10T05:59:56;11.85;;;2.80;;
12745;SDS011;6437;53.686;10.030;2023-05-10T06:02:00;6.68;;;2.83;;
12745;SDS011;6437;53.686;10.030;2023-05-10T06:04:16;4.93;;;2.67;;
12745;SDS011;6437;53.686;10.030;2023-05-10T06:06:18;5.00;;;3.17;;
12745;SDS011;6437;53.686;10.030;2023-05-10T06:08:20;11.48;;;3.33;;
12745;SDS011;6437;53.686;10.030;2023-05-10T06:10:23;9.50;;;2.88;;
12745;SDS011;6437;53.686;10.030;2023-05-10T06:14:29;3.72;;;2.47;;
12745;SDS011;6437;53.686;10.030;2023-05-10T06:16:37;8.27;;;2.60;;
12745;SDS011;6437;53.686;10.030;2023-05-10T06:18:41;4.72;;;2.70;;
12745;SDS011;6437;53.686;10.030;2023-05-10T06:22:45;9.85;;;4.03;;
12745;SDS011;6437;53.686;10.030;2023-05-10T06:24:47;16.55;;;3.97;;
12745;SDS011;6437;53.686;10.030;2023-05-10T06:26:49;5.50;;;3.67;;
12745;SDS011;6437;53.686;10.030;2023-05-10T06:28:51;10.10;;;2.95;;
12745;SDS011;6437;53.686;10.030;2023-05-10T06:30:54;4.53;;;3.13;;
12745;SDS011;6437;53.686;10.030;2023-05-10T06:32:57;8.80;;;3.55;;
12745;SDS011;6437;53.686;10.030;2023-05-10T06:37:00;7.30;;;3.25;;
12745;SDS011;6437;53.686;10.030;2023-05-10T06:39:03;12.70;;;3.65;;
12745;SDS011;6437;53.686;10.030;2023-05-10T06:41:09;8.40;;;2.78;;
12745;SDS011;6437;53.686;10.030;2023-05-10T06:43:14;4.80;;;3.33;;
12745;SDS011;6437;53.686;10.030;2023-05-10T06:47:19;5.75;;;2.72;;
12745;SDS011;6437;53.686;10.030;2023-05-10T06:49:21;5.25;;;3.13;;
12745;SDS011;6437;53.686;10.030;2023-05-10T06:51:23;11.25;;;2.90;;
12745;SDS011;6437;53.686;10.030;2023-05-10T06:55:28;7.80;;;3.28;;
12745;SDS011;6437;53.686;10.030;2023-05-10T06:57:33;9.48;;;3.65;;
12745;SDS011;6437;53.686;10.030;2023-05-10T06:59:35;5.72;;;3.25;;
12745;SDS011;6437;53.686;10.030;2023-05-10T07:01:37;7.72;;;3.72;;
12745;SDS011;6437;53.686;10.030;2023-05-10T07:03:41;8.07;;;3.67;;
12745;SDS011;6437;53.686;10.030;2023-05-10T07:05:43;6.90;;;3.58;;
12745;SDS011;6437;53.686;10.030;2023-05-10T07:07:45;9.68;;;2.85;;
12745;SDS011;6437;53.686;10.030;2023-05-10T07:09:48;7.25;;;3.65;;
12745;SDS011;6437;53.686;10.030;2023-05-10T07:11:51;3.67;;;3.13;;
12745;SDS011;6437;53.686;10.030;2023-05-10T07:15:55;5.40;;;3.00;;
12745;SDS011;6437;53.686;10.030;2023-05-10T07:17:56;5.60;;;3.53;;
12745;SDS011;6437;53.686;10.030;2023-05-10T07:20:00;8.75;;;4.40;;
12745;SDS011;6437;53.686;10.030;2023-05-10T07:22:02;11.07;;;4.72;;
12745;SDS011;6437;53.686;10.030;2023-05-10T07:24:06;4.85;;;3.35;;
12745;SDS011;6437;53.686;10.030;2023-05-10T07:26:08;14.80;;;3.60;;
12745;SDS011;6437;53.686;10.030;2023-05-10T07:28:15;7.18;;;3.35;;
12745;SDS011;6437;53.686;10.030;2023-05-10T07:30:17;8.05;;;3.53;;
12745;SDS011;6437;53.686;10.030;2023-05-10T07:32:21;5.95;;;4.00;;
12745;SDS011;6437;53.686;10.030;2023-05-10T07:34:37;8.93;;;4.40;;
12745;SDS011;6437;53.686;10.030;2023-05-10T07:36:45;4.88;;;2.65;;
12745;SDS011;6437;53.686;10.030;2023-05-10T07:38:48;9.30;;;3.33;;
12745;SDS011;6437;53.686;10.030;2023-05-10T07:40:51;8.80;;;3.78;;
12745;SDS011;6437;53.686;10.030;2023-05-10T07:42:54;6.93;;;3.30;;
12745;SDS011;6437;53.686;10.030;2023-05-10T07:44:57;7.32;;;2.88;;
12745;SDS011;6437;53.686;10.030;2023-05-10T07:47:01;7.93;;;3.30;;
12745;SDS011;6437;53.686;10.030;2023-05-10T07:49:07;4.63;;;3.10;;
12745;SDS011;6437;53.686;10.030;2023-05-10T07:51:09;5.68;;;3.20;;
12745;SDS011;6437;53.686;10.030;2023-05-10T07:53:15;17.85;;;3.80;;
12745;SDS011;6437;53.686;10.030;2023-05-10T07:55:18;6.45;;;3.42;;
12745;SDS011;6437;53.686;10.030;2023-05-10T07:57:21;6.05;;;3.08;;
12745;SDS011;6437;53.686;10.030;2023-05-10T07:59:23;8.45;;;3.47;;
12745;SDS011;6437;53.686;10.030;2023-05-10T08:01:25;10.35;;;3.50;;
12745;SDS011;6437;53.686;10.030;2023-05-10T08:03:33;4.60;;;3.00;;
12745;SDS011;6437;53.686;10.030;2023-05-10T08:05:41;10.68;;;3.47;;
12745;SDS011;6437;53.686;10.030;2023-05-10T08:07:43;9.82;;;3.25;;
12745;SDS011;6437;53.686;10.030;2023-05-10T08:09:47;11.48;;;3.40;;
12745;SDS011;6437;53.686;10.030;2023-05-10T08:11:49;3.80;;;3.47;;
12745;SDS011;6437;53.686;10.030;2023-05-10T08:13:53;5.80;;;3.13;;
12745;SDS011;6437;53.686;10.030;2023-05-10T08:15:56;4.90;;;3.45;;
12745;SDS011;6437;53.686;10.030;2023-05-10T08:20:00;4.97;;;3.83;;
12745;SDS011;6437;53.686;10.030;2023-05-10T08:22:02;7.30;;;3.45;;
12745;SDS011;6437;53.686;10.030;2023-05-10T08:24:15;5.97;;;4.35;;
12745;SDS011;6437;53.686;10.030;2023-05-10T08:26:23;4.25;;;3.85;;
12745;SDS011;6437;53.686;10.030;2023-05-10T08:28:25;7.93;;;3.40;;
12745;SDS011;6437;53.686;10.030;2023-05-10T08:32:29;4.63;;;2.78;;
12745;SDS011;6437;53.686;10.030;2023-05-10T08:36:34;8.15;;;3.55;;
12745;SDS011;6437;53.686;10.030;2023-05-10T08:38:38;10.05;;;4.22;;
12745;SDS011;6437;53.686;10.030;2023-05-10T08:40:41;6.03;;;3.95;;
12745;SDS011;6437;53.686;10.030;2023-05-10T08:42:50;4.25;;;3.65;;
12745;SDS011;6437;53.686;10.030;2023-05-10T08:44:57;17.67;;;4.22;;
12745;SDS011;6437;53.686;10.030;2023-05-10T08:47:16;13.65;;;4.63;;
12745;SDS011;6437;53.686;10.030;2023-05-10T08:49:25;5.20;;;4.38;;
12745;SDS011;6437;53.686;10.030;2023-05-10T08:51:36;13.13;;;4.38;;
12745;SDS011;6437;53.686;10.030;2023-05-10T08:53:42;10.57;;;4.05;;
12745;SDS011;6437;53.686;10.030;2023-05-10T08:55:48;10.60;;;4.30;;
12745;SDS011;6437;53.686;10.030;2023-05-10T08:57:52;9.07;;;4.40;;
12745;SDS011;6437;53.686;10.030;2023-05-10T08:59:54;10.63;;;3.22;;
12745;SDS011;6437;53.686;10.030;2023-05-10T09:01:57;8.32;;;3.15;;
12745;SDS011;6437;53.686;10.030;2023-05-10T09:04:00;13.57;;;5.40;;
12745;SDS011;6437;53.686;10.030;2023-05-10T09:06:04;9.57;;;4.00;;
12745;SDS011;6437;53.686;10.030;2023-05-10T09:08:09;8.52;;;3.90;;
12745;SDS011;6437;53.686;10.030;2023-05-10T09:10:12;8.05;;;4.03;;
12745;SDS011;6437;53.686;10.030;2023-05-10T09:12:16;5.57;;;3.90;;
12745;SDS011;6437;53.686;10.030;2023-05-10T09:14:22;4.40;;;3.83;;
12745;SDS011;6437;53.686;10.030;2023-05-10T09:16:26;12.15;;;3.83;;
12745;SDS011;6437;53.686;10.030;2023-05-10T09:18:30;6.18;;;3.83;;
12745;SDS011;6437;53.686;10.030;2023-05-10T09:20:33;10.13;;;4.20;;
12745;SDS011;6437;53.686;10.030;2023-05-10T09:22:36;14.68;;;4.95;;
12745;SDS011;6437;53.686;10.030;2023-05-10T09:24:38;5.97;;;3.95;;
12745;SDS011;6437;53.686;10.030;2023-05-10T09:26:48;7.32;;;4.18;;
12745;SDS011;6437;53.686;10.030;2023-05-10T09:28:55;6.55;;;3.50;;
12745;SDS011;6437;53.686;10.030;2023-05-10T09:30:59;5.60;;;4.20;;
12745;SDS011;6437;53.686;10.030;2023-05-10T09:33:02;7.70;;;4.18;;
12745;SDS011;6437;53.686;10.030;2023-05-10T09:35:13;9.93;;;4.22;;
12745;SDS011;6437;53.686;10.030;2023-05-10T09:37:16;14.63;;;4.82;;
12745;SDS011;6437;53.686;10.030;2023-05-10T09:39:29;11.88;;;3.70;;
12745;SDS011;6437;53.686;10.030;2023-05-10T09:41:34;9.65;;;3.47;;
12745;SDS011;6437;53.686;10.030;2023-05-10T09:43:37;14.02;;;4.55;;
12745;SDS011;6437;53.686;10.030;2023-05-10T09:45:40;7.07;;;3.75;;
12745;SDS011;6437;53.686;10.030;2023-05-10T09:47:44;7.47;;;4.15;;
12745;SDS011;6437;53.686;10.030;2023-05-10T09:49:49;13.70;;;3.33;;
12745;SDS011;6437;53.686;10.030;2023-05-10T09:51:59;7.75;;;4.22;;
12745;SDS011;6437;53.686;10.030;2023-05-10T09:54:09;11.98;;;3.95;;
12745;SDS011;6437;53.686;10.030;2023-05-10T09:56:11;7.88;;;4.40;;
12745;SDS011;6437;53.686;10.030;2023-05-10T09:58:14;5.72;;;4.18;;
12745;SDS011;6437;53.686;10.030;2023-05-10T10:00:17;6.93;;;3.45;;
12745;SDS011;6437;53.686;10.030;2023-05-10T10:02:28;6.57;;;3.70;;
12745;SDS011;6437;53.686;10.030;2023-05-10T10:04:37;16.50;;;4.05;;
12745;SDS011;6437;53.686;10.030;2023-05-10T10:06:41;8.70;;;4.20;;
12745;SDS011;6437;53.686;10.030;2023-05-10T10:08:45;9.38;;;3.95;;
12745;SDS011;6437;53.686;10.030;2023-05-10T10:10:51;13.55;;;5.65;;
12745;SDS011;6437;53.686;10.030;2023-05-10T10:12:54;7.43;;;4.45;;
12745;SDS011;6437;53.686;10.030;2023-05-10T10:15:00;15.05;;;4.57;;
12745;SDS011;6437;53.686;10.030;2023-05-10T10:17:02;5.90;;;4.90;;
12745;SDS011;6437;53.686;10.030;2023-05-10T10:19:14;16.45;;;4.40;;
12745;SDS011;6437;53.686;10.030;2023-05-10T10:21:18;15.90;;;5.20;;
12745;SDS011;6437;53.686;10.030;2023-05-10T10:23:20;9.88;;;4.60;;
12745;SDS011;6437;53.686;10.030;2023-05-10T10:25:23;8.27;;;4.60;;
12745;SDS011;6437;53.686;10.030;2023-05-10T10:27:28;13.18;;;4.63;;
12745;SDS011;6437;53.686;10.030;2023-05-10T10:29:43;7.05;;;5.88;;
12745;SDS011;6437;53.686;10.030;2023-05-10T10:31:52;6.55;;;4.85;;
12745;SDS011;6437;53.686;10.030;2023-05-10T10:34:05;13.05;;;5.60;;
12745;SDS011;6437;53.686;10.030;2023-05-10T10:36:11;8.13;;;6.47;;
12745;SDS011;6437;53.686;10.030;2023-05-10T10:38:22;12.80;;;6.60;;
12745;SDS011;6437;53.686;10.030;2023-05-10T10:40:28;9.45;;;5.85;;
12745;SDS011;6437;53.686;10.030;2023-05-10T10:42:46;11.82;;;6.28;;
12745;SDS011;6437;53.686;10.030;2023-05-10T10:44:49;7.78;;;6.18;;
12745;SDS011;6437;53.686;10.030;2023-05-10T10:47:21;11.82;;;6.22;;
12745;SDS011;6437;53.686;10.030;2023-05-10T10:49:27;8.32;;;6.00;;
12745;SDS011;6437;53.686;10.030;2023-05-10T10:51:29;14.52;;;6.80;;
12745;SDS011;6437;53.686;10.030;2023-05-10T10:55:35;9.15;;;6.78;;
12745;SDS011;6437;53.686;10.030;2023-05-10T10:57:48;23.55;;;7.03;;
12745;SDS011;6437;53.686;10.030;2023-05-10T10:59:53;8.70;;;6.88;;
12745;SDS011;6437;53.686;10.030;2023-05-10T11:04:41;13.55;;;7.05;;
12745;SDS011;6437;53.686;10.030;2023-05-10T11:06:46;8.05;;;6.80;;
12745;SDS011;6437;53.686;10.030;2023-05-10T11:08:50;11.85;;;7.32;;
12745;SDS011;6437;53.686;10.030;2023-05-10T11:13:17;12.93;;;7.63;;
12745;SDS011;6437;53.686;10.030;2023-05-10T11:15:29;8.73;;;7.00;;
12745;SDS011;6437;53.686;10.030;2023-05-10T11:17:31;19.73;;;6.07;;
12745;SDS011;6437;53.686;10.030;2023-05-10T11:19:36;15.60;;;7.32;;
12745;SDS011;6437;53.686;10.030;2023-05-10T11:21:44;11.75;;;6.30;;
12745;SDS011;6437;53.686;10.030;2023-05-10T11:23:48;6.50;;;5.85;;
12745;SDS011;6437;53.686;10.030;2023-05-10T11:25:52;18.98;;;6.10;;
12745;SDS011;6437;53.686;10.030;2023-05-10T11:27:55;7.55;;;6.85;;
12745;SDS011;6437;53.686;10.030;2023-05-10T11:31:59;9.73;;;6.63;;
12745;SDS011;6437;53.686;10.030;2023-05-10T11:34:08;7.80;;;6.80;;
12745;SDS011;6437;53.686;10.030;2023-05-10T11:36:13;17.92;;;7.03;;
12745;SDS011;6437;53.686;10.030;2023-05-10T11:38:17;8.10;;;6.75;;
12745;SDS011;6437;53.686;10.030;2023-05-10T11:40:22;13.73;;;6.57;;
12745;SDS011;6437;53.686;10.030;2023-05-10T11:42:27;10.00;;;6.95;;
12745;SDS011;6437;53.686;10.030;2023-05-10T11:44:29;12.77;;;6.10;;
12745;SDS011;6437;53.686;10.030;2023-05-10T11:46:32;9.35;;;6.65;;
12745;SDS011;6437;53.686;10.030;2023-05-10T11:48:34;13.57;;;6.28;;
12745;SDS011;6437;53.686;10.030;2023-05-10T11:50:36;11.45;;;6.30;;
12745;SDS011;6437;53.686;10.030;2023-05-10T11:52:38;8.13;;;6.80;;
12745;SDS011;6437;53.686;10.030;2023-05-10T11:54:44;10.57;;;7.65;;
12745;SDS011;6437;53.686;10.030;2023-05-10T11:56:53;7.53;;;6.60;;
12745;SDS011;6437;53.686;10.030;2023-05-10T11:58:56;9.35;;;7.65;;
12745;SDS011;6437;53.686;10.030;2023-05-10T12:00:58;7.78;;;6.97;;
12745;SDS011;6437;53.686;10.030;2023-05-10T12:03:00;9.52;;;6.13;;
12745;SDS011;6437;53.686;10.030;2023-05-10T12:05:03;7.55;;;6.55;;
12745;SDS011;6437;53.686;10.030;2023-05-10T12:07:07;10.13;;;5.75;;
12745;SDS011;6437;53.686;10.030;2023-05-10T12:09:09;11.90;;;6.68;;
12745;SDS011;6437;53.686;10.030;2023-05-10T12:11:11;11.10;;;7.85;;
12745;SDS011;6437;53.686;10.030;2023-05-10T12:13:18;14.13;;;6.65;;
12745;SDS011;6437;53.686;10.030;2023-05-10T12:15:22;8.43;;;6.80;;
12745;SDS011;6437;53.686;10.030;2023-05-10T12:17:27;9.25;;;6.53;;
12745;SDS011;6437;53.686;10.030;2023-05-10T12:19:36;12.00;;;7.63;;
12745;SDS011;6437;53.686;10.030;2023-05-10T12:21:41;11.90;;;8.23;;
12745;SDS011;6437;53.686;10.030;2023-05-10T12:23:46;9.50;;;7.30;;
12745;SDS011;6437;53.686;10.030;2023-05-10T12:25:50;15.63;;;7.47;;
12745;SDS011;6437;53.686;10.030;2023-05-10T12:27:56;15.85;;;9.27;;
12745;SDS011;6437;53.686;10.030;2023-05-10T12:30:02;12.75;;;6.95;;
12745;SDS011;6437;53.686;10.030;2023-05-10T12:32:08;10.10;;;7.75;;
12745;SDS011;6437;53.686;10.030;2023-05-10T12:35:00;13.75;;;7.72;;
12745;SDS011;6437;53.686;10.030;2023-05-10T12:50:46;7.63;;;6.80;;
12745;SDS011;6437;53.686;10.030;2023-05-10T12:52:48;8.82;;;7.00;;
12745;SDS011;6437;53.686;10.030;2023-05-10T12:54:50;8.27;;;6.63;;
12745;SDS011;6437;53.686;10.030;2023-05-10T12:56:51;9.38;;;5.82;;
12745;SDS011;6437;53.686;10.030;2023-05-10T12:58:53;7.60;;;6.70;;
12745;SDS011;6437;53.686;10.030;2023-05-10T13:00:56;9.52;;;6.13;;
12745;SDS011;6437;53.686;10.030;2023-05-10T13:02:58;6.68;;;6.10;;
12745;SDS011;6437;53.686;10.030;2023-05-10T13:05:00;6.13;;;5.10;;
12745;SDS011;6437;53.686;10.030;2023-05-10T13:07:02;11.80;;;6.35;;
12745;SDS011;6437;53.686;10.030;2023-05-10T13:09:04;9.07;;;5.85;;
12745;SDS011;6437;53.686;10.030;2023-05-10T13:11:06;5.95;;;5.38;;
12745;SDS011;6437;53.686;10.030;2023-05-10T13:13:09;11.93;;;5.03;;
12745;SDS011;6437;53.686;10.030;2023-05-10T13:15:11;5.32;;;4.82;;
12745;SDS011;6437;53.686;10.030;2023-05-10T13:17:14;6.75;;;6.13;;
12745;SDS011;6437;53.686;10.030;2023-05-10T13:19:16;7.97;;;5.63;;
12745;SDS011;6437;53.686;10.030;2023-05-10T13:21:18;9.77;;;6.20;;
12745;SDS011;6437;53.686;10.030;2023-05-10T13:23:20;18.83;;;6.85;;
12745;SDS011;6437;53.686;10.030;2023-05-10T13:25:21;8.45;;;5.90;;
12745;SDS011;6437;53.686;10.030;2023-05-10T13:27:23;9.00;;;5.95;;
12745;SDS011;6437;53.686;10.030;2023-05-10T13:29:25;11.00;;;5.90;;
12745;SDS011;6437;53.686;10.030;2023-05-10T13:31:27;8.30;;;4.50;;
12745;SDS011;6437;53.686;10.030;2023-05-10T13:33:30;10.85;;;5.75;;
12745;SDS011;6437;53.686;10.030;2023-05-10T13:35:31;4.97;;;3.88;;